createdAt,value
2018-03-23T00:02:12.951Z,19.97
2018-03-23T00:04:39.963Z,18.70
2018-03-23T00:07:07.989Z,20.80
2018-03-23T00:09:35.005Z,21.00
2018-03-23T00:19:53.236Z,20.70
2018-03-23T00:22:20.244Z,17.13
2018-03-23T00:24:47.258Z,22.00
2018-03-23T00:27:14.304Z,20.10
2018-03-23T00:29:41.327Z,22.07
2018-03-23T00:32:09.291Z,19.83
2018-03-23T00:34:36.365Z,22.43
2018-03-23T00:37:03.384Z,21.53
2018-03-23T00:39:30.416Z,21.07
2018-03-23T00:41:57.869Z,21.53
2018-03-23T00:44:24.886Z,21.03
2018-03-23T00:46:52.872Z,19.87
2018-03-23T00:49:20.793Z,20.00
2018-03-23T00:51:48.765Z,22.30
2018-03-23T00:54:15.846Z,22.73
2018-03-23T00:56:42.888Z,24.23
2018-03-23T00:59:09.894Z,26.10
2018-03-23T01:01:36.908Z,25.90
2018-03-23T01:04:05.324Z,30.23
2018-03-23T01:06:33.209Z,27.93
2018-03-23T01:09:00.208Z,26.43
2018-03-23T01:11:27.264Z,26.63
2018-03-23T01:13:55.218Z,29.53
2018-03-23T01:16:23.189Z,28.33
2018-03-23T01:18:51.189Z,28.33
2018-03-23T01:21:19.250Z,29.87
2018-03-23T01:23:47.222Z,32.50
2018-03-23T01:26:14.290Z,26.03
2018-03-23T01:28:42.256Z,25.50
2018-03-23T01:31:09.301Z,29.23
2018-03-23T01:33:36.632Z,27.37
2018-03-23T01:36:03.657Z,28.40
2018-03-23T01:38:32.292Z,28.00
2018-03-23T01:43:38.997Z,36.22
2018-03-23T01:46:06.073Z,35.43
2018-03-23T01:48:33.085Z,31.43
2018-03-23T01:51:00.113Z,31.57
2018-03-23T01:53:39.595Z,30.10
2018-03-23T01:56:06.616Z,30.60
2018-03-23T01:58:33.652Z,30.03
2018-03-23T02:01:00.696Z,30.77
2018-03-23T02:03:27.722Z,29.40
2018-03-23T02:05:55.565Z,35.60
2018-03-23T02:08:22.641Z,30.57
2018-03-23T02:10:50.428Z,32.20
2018-03-23T02:13:17.481Z,31.97
2018-03-23T02:15:45.514Z,31.63
2018-03-23T02:18:12.627Z,32.20
2018-03-23T02:20:39.641Z,28.67
2018-03-23T02:23:06.686Z,29.70
2018-03-23T02:25:34.547Z,31.03
2018-03-23T02:28:01.559Z,32.53
2018-03-23T02:30:28.738Z,34.20
2018-03-23T02:32:55.757Z,31.97
2018-03-23T02:35:23.632Z,31.20
2018-03-23T02:37:50.766Z,31.80
2018-03-23T02:40:17.791Z,26.90
2018-03-23T02:42:44.816Z,27.47
2018-03-23T02:45:12.835Z,28.20
2018-03-23T02:47:39.946Z,28.10
2018-03-23T02:50:07.809Z,27.97
2018-03-23T02:52:34.887Z,28.47
2018-03-23T02:55:02.827Z,26.33
2018-03-23T02:57:29.817Z,28.50
2018-03-23T02:59:56.879Z,30.67
2018-03-23T03:02:24.692Z,31.20
2018-03-23T03:04:51.706Z,30.53
2018-03-23T03:09:58.166Z,38.80
2018-03-23T03:12:25.274Z,32.27
2018-03-23T03:14:52.286Z,34.00
2018-03-23T03:17:19.293Z,33.57
2018-03-23T03:19:47.093Z,34.53
2018-03-23T03:22:14.924Z,41.27
2018-03-23T03:24:41.935Z,42.57
2018-03-23T03:27:08.996Z,36.60
2018-03-23T03:29:36.009Z,36.53
2018-03-23T03:32:03.038Z,34.33
2018-03-23T03:34:30.108Z,32.27
2018-03-23T03:36:57.124Z,40.07
2018-03-23T03:39:24.151Z,39.57
2018-03-23T03:41:52.134Z,40.37
2018-03-23T03:44:19.152Z,40.87
2018-03-23T03:46:47.020Z,43.07
2018-03-23T03:49:14.095Z,39.93
2018-03-23T03:51:41.923Z,43.57
2018-03-23T03:54:08.945Z,43.90
2018-03-23T03:56:36.870Z,40.50
2018-03-23T03:59:03.901Z,43.83
2018-03-23T04:01:30.915Z,39.40
2018-03-23T04:03:57.963Z,40.87
2018-03-23T04:06:24.982Z,42.33
2018-03-23T04:08:52.826Z,41.73
2018-03-23T04:11:19.894Z,42.63
2018-03-23T04:13:46.919Z,40.97
2018-03-23T04:18:55.535Z,49.45
2018-03-23T04:21:22.547Z,46.67
2018-03-23T04:23:49.561Z,45.97
2018-03-23T04:26:16.596Z,46.03
2018-03-23T04:28:44.469Z,45.03
2018-03-23T04:31:11.486Z,50.07
2018-03-23T04:33:39.993Z,48.37
2018-03-23T04:36:06.998Z,44.27
2018-03-23T04:38:34.959Z,40.87
2018-03-23T04:41:02.036Z,43.57
2018-03-23T04:43:29.050Z,43.20
2018-03-23T04:45:56.066Z,45.67
2018-03-23T04:48:23.120Z,43.57
2018-03-23T04:50:51.858Z,49.13
2018-03-23T04:53:18.869Z,51.13
2018-03-23T04:55:45.967Z,57.93
2018-03-23T04:58:12.979Z,50.40
2018-03-23T05:00:41.218Z,54.43
2018-03-23T05:03:08.264Z,49.33
2018-03-23T05:05:35.284Z,51.43
2018-03-23T05:08:03.226Z,49.77
2018-03-23T05:10:30.255Z,53.27
2018-03-23T05:12:57.272Z,52.03
2018-03-23T05:15:24.319Z,49.83
2018-03-23T05:17:54.578Z,38.97
2018-03-23T05:20:21.596Z,41.17
2018-03-23T05:22:48.692Z,39.20
2018-03-23T05:25:15.855Z,37.70
2018-03-23T05:27:42.873Z,43.83
2018-03-23T05:30:10.732Z,38.73
2018-03-23T05:32:37.787Z,42.37
2018-03-23T05:35:04.790Z,47.20
2018-03-23T05:37:31.892Z,42.57
2018-03-23T05:39:58.935Z,40.53
2018-03-23T05:45:07.722Z,42.60
2018-03-23T05:47:34.729Z,37.63
2018-03-23T05:50:02.076Z,37.47
2018-03-23T05:52:29.127Z,41.67
2018-03-23T05:54:56.139Z,41.90
2018-03-23T05:57:24.043Z,45.00
2018-03-23T05:59:51.112Z,48.23
2018-03-23T06:02:18.098Z,45.30
2018-03-23T06:04:45.115Z,50.07
2018-03-23T06:07:12.189Z,52.33
2018-03-23T06:09:39.212Z,44.07
2018-03-23T06:12:06.229Z,41.70
2018-03-23T06:14:33.279Z,38.77
2018-03-23T06:17:00.306Z,42.87
2018-03-23T06:19:27.345Z,46.17
2018-03-23T06:21:54.413Z,44.73
2018-03-23T06:24:21.424Z,48.73
2018-03-23T06:26:48.434Z,46.23
2018-03-23T06:29:22.660Z,42.50
2018-03-23T06:31:50.416Z,46.50
2018-03-23T06:34:17.695Z,44.50
2018-03-23T06:36:48.751Z,45.10
2018-03-23T06:44:27.949Z,43.95
2018-03-23T06:46:55.017Z,44.90
2018-03-23T06:49:22.901Z,40.93
2018-03-23T06:51:49.919Z,39.17
2018-03-23T06:54:16.962Z,42.53
2018-03-23T06:56:44.006Z,41.13
2018-03-23T06:59:10.996Z,36.20
2018-03-23T07:01:39.907Z,39.83
2018-03-23T07:04:06.975Z,32.90
2018-03-23T07:06:34.091Z,33.47
2018-03-23T07:09:01.132Z,34.37
2018-03-23T07:11:29.082Z,36.07
2018-03-23T07:13:56.099Z,35.87
2018-03-23T07:16:23.167Z,34.83
2018-03-23T07:18:50.180Z,35.80
2018-03-23T07:21:17.294Z,40.10
2018-03-23T07:23:44.355Z,36.37
2018-03-23T07:26:11.372Z,36.93
2018-03-23T07:28:38.386Z,39.53
2018-03-23T07:31:05.435Z,40.93
2018-03-23T07:33:32.458Z,42.57
2018-03-23T07:35:59.557Z,37.73
2018-03-23T07:38:26.605Z,36.03
2018-03-23T07:40:53.630Z,37.67
2018-03-23T07:43:20.640Z,36.57
2018-03-23T07:45:47.707Z,35.47
2018-03-23T07:48:15.663Z,37.77
2018-03-23T07:50:42.682Z,39.30
2018-03-23T07:53:09.749Z,36.23
2018-03-23T07:55:36.774Z,32.23
2018-03-23T07:58:03.780Z,30.40
2018-03-23T08:00:30.843Z,33.60
2018-03-23T08:03:05.071Z,33.23
2018-03-23T08:08:11.834Z,33.28
2018-03-23T08:10:38.894Z,34.67
2018-03-23T08:13:05.919Z,32.90
2018-03-23T08:15:32.932Z,30.37
2018-03-23T08:18:00.012Z,31.23
2018-03-23T08:20:27.873Z,29.53
2018-03-23T08:22:54.895Z,32.77
2018-03-23T08:25:21.950Z,32.67
2018-03-23T08:27:48.992Z,32.03
2018-03-23T08:30:16.003Z,29.97
2018-03-23T08:32:43.047Z,31.30
2018-03-23T08:35:10.061Z,31.03
2018-03-23T08:37:37.102Z,31.07
2018-03-23T08:40:04.144Z,33.77
2018-03-23T08:42:31.151Z,26.83
2018-03-23T08:44:58.176Z,22.57
2018-03-23T08:47:25.939Z,25.70
2018-03-23T08:49:53.725Z,25.43
2018-03-23T08:52:20.734Z,26.33
2018-03-23T08:54:47.784Z,26.77
2018-03-23T08:57:14.824Z,26.97
2018-03-23T08:59:42.691Z,24.03
2018-03-23T09:02:09.740Z,27.40
2018-03-23T09:04:36.751Z,27.63
2018-03-23T09:07:03.773Z,24.43
2018-03-23T09:09:30.813Z,22.10
2018-03-23T09:11:57.830Z,19.83
2018-03-23T09:14:24.844Z,16.77
2018-03-23T09:16:51.910Z,17.90
2018-03-23T09:19:18.926Z,16.40
2018-03-23T09:21:45.971Z,13.63
2018-03-23T09:24:12.975Z,11.83
2018-03-23T09:26:39.992Z,11.40
2018-03-23T09:29:07.010Z,12.70
2018-03-23T09:31:34.076Z,14.60
2018-03-23T09:36:41.592Z,17.15
2018-03-23T09:39:08.619Z,16.93
2018-03-23T09:41:35.624Z,15.40
2018-03-23T09:44:03.616Z,21.10
2018-03-23T09:46:30.626Z,17.97
2018-03-23T09:48:57.644Z,20.63
2018-03-23T09:51:24.688Z,20.20
2018-03-23T09:53:51.709Z,20.40
2018-03-23T09:56:18.718Z,21.13
2018-03-23T09:58:45.787Z,21.53
2018-03-23T10:01:12.812Z,21.43
2018-03-23T10:03:39.832Z,21.47
2018-03-23T10:06:06.874Z,16.60
2018-03-23T10:08:33.888Z,18.43
2018-03-23T10:11:00.903Z,19.10
2018-03-23T10:13:27.951Z,18.63
2018-03-23T10:15:54.965Z,14.77
2018-03-23T10:18:22.071Z,14.67
2018-03-23T10:20:49.187Z,17.00
2018-03-23T10:23:16.158Z,17.93
2018-03-23T10:25:43.175Z,15.83
2018-03-23T10:28:10.217Z,20.00
2018-03-23T10:30:37.322Z,23.23
2018-03-23T10:33:04.330Z,27.47
2018-03-23T10:35:31.838Z,22.13
2018-03-23T10:37:58.817Z,21.67
2018-03-23T10:40:25.827Z,26.67
2018-03-23T10:42:53.400Z,21.87
2018-03-23T10:45:20.412Z,24.40
2018-03-23T10:47:47.426Z,23.83
2018-03-23T10:50:14.467Z,17.30
2018-03-23T10:52:41.514Z,20.27
2018-03-23T10:55:08.562Z,19.80
2018-03-23T10:57:35.628Z,17.77
2018-03-23T11:02:42.712Z,19.45
2018-03-23T11:05:09.730Z,16.37
2018-03-23T11:07:36.740Z,15.70
2018-03-23T11:10:14.051Z,15.77
2018-03-23T11:12:41.043Z,11.80
2018-03-23T11:15:08.029Z,13.00
2018-03-23T11:17:35.078Z,10.70
2018-03-23T11:20:02.087Z,13.50
2018-03-23T11:22:29.107Z,13.23
2018-03-23T11:24:56.172Z,15.57
2018-03-23T11:27:23.196Z,13.27
2018-03-23T11:29:50.206Z,10.77
2018-03-23T11:32:18.103Z,9.20
2018-03-23T11:34:45.127Z,9.80
2018-03-23T11:37:12.128Z,9.57
2018-03-23T11:39:39.169Z,10.70
2018-03-23T11:42:07.430Z,10.07
2018-03-23T11:44:34.440Z,9.83
2018-03-23T11:47:01.581Z,10.47
2018-03-23T11:49:28.596Z,7.53
2018-03-23T11:51:55.606Z,13.40
2018-03-23T11:54:24.512Z,12.47
2018-03-23T11:56:51.522Z,13.60
2018-03-23T11:59:18.850Z,10.53
2018-03-23T12:01:45.680Z,12.40
2018-03-23T12:04:13.062Z,11.00
2018-03-23T12:06:40.101Z,9.67
2018-03-23T12:09:07.148Z,8.17
2018-03-23T12:11:34.243Z,8.37
2018-03-23T12:14:01.255Z,9.73
2018-03-23T12:16:30.313Z,8.40
2018-03-23T12:18:55.318Z,8.80
2018-03-23T12:21:22.587Z,9.73
2018-03-23T12:23:49.742Z,10.47
2018-03-23T12:26:16.850Z,7.73
2018-03-23T12:34:00.778Z,7.80
2018-03-23T12:36:27.844Z,7.27
2018-03-23T12:38:54.853Z,7.60
2018-03-23T12:41:21.864Z,6.73
2018-03-23T12:43:48.928Z,6.33
2018-03-23T12:46:15.934Z,7.33
2018-03-23T12:48:42.942Z,8.43
2018-03-23T12:51:09.980Z,6.83
2018-03-23T12:53:37.006Z,10.00
2018-03-23T12:56:04.013Z,5.00
2018-03-23T12:58:31.071Z,6.80
2018-03-23T13:00:58.083Z,6.03
2018-03-23T13:03:25.097Z,5.60
2018-03-23T13:05:52.146Z,5.10
2018-03-23T13:08:19.243Z,4.80
2018-03-23T13:10:46.262Z,4.27
2018-03-23T13:13:13.326Z,5.70
2018-03-23T13:15:40.337Z,5.23
2018-03-23T13:18:07.345Z,3.93
2018-03-23T13:20:34.418Z,4.00
2018-03-23T13:23:01.531Z,3.40
2018-03-23T13:25:28.536Z,5.47
2018-03-23T13:27:55.580Z,4.00
2018-03-23T13:30:22.590Z,6.80
2018-03-23T13:32:49.598Z,6.17
2018-03-23T13:35:16.662Z,5.00
2018-03-23T13:37:43.672Z,3.40
2018-03-23T13:40:10.682Z,7.13
2018-03-23T13:42:37.843Z,4.67
2018-03-23T13:45:04.943Z,3.20
2018-03-23T13:47:31.962Z,4.13
2018-03-23T13:49:59.075Z,3.77
2018-03-23T13:52:26.022Z,2.13
2018-03-23T13:57:31.553Z,2.55
2018-03-23T13:59:58.566Z,3.20
2018-03-23T14:02:25.597Z,1.63
2018-03-23T14:04:54.156Z,1.80
2018-03-23T14:07:21.262Z,1.50
2018-03-23T14:09:48.279Z,3.40
2018-03-23T14:12:15.330Z,1.70
2018-03-23T14:14:42.359Z,1.43
2018-03-23T14:17:09.369Z,1.60
2018-03-23T14:19:36.422Z,1.57
2018-03-23T14:22:03.439Z,5.77
2018-03-23T14:24:30.458Z,2.17
2018-03-23T14:26:57.506Z,3.07
2018-03-23T14:29:24.530Z,2.13
2018-03-23T14:31:51.540Z,2.73
2018-03-23T14:34:18.604Z,4.30
2018-03-23T14:36:45.613Z,1.67
2018-03-23T14:39:12.629Z,2.20
2018-03-23T14:41:39.675Z,3.27
2018-03-23T14:44:06.691Z,3.60
2018-03-23T14:46:33.822Z,1.97
2018-03-23T14:49:00.845Z,3.00
2018-03-23T14:51:27.856Z,1.30
2018-03-23T14:53:54.861Z,1.80
2018-03-23T14:56:21.949Z,3.00
2018-03-23T14:58:48.955Z,2.03
2018-03-23T15:01:16.081Z,2.50
2018-03-23T15:03:43.124Z,3.43
2018-03-23T15:06:10.136Z,2.23
2018-03-23T15:08:37.195Z,4.10
2018-03-23T15:11:04.283Z,1.40
2018-03-23T15:13:31.288Z,1.57
2018-03-23T15:18:36.844Z,1.45
2018-03-23T15:21:03.852Z,1.67
2018-03-23T15:23:31.808Z,2.13
2018-03-23T15:25:58.959Z,3.47
2018-03-23T15:28:25.970Z,2.83
2018-03-23T15:30:52.969Z,2.60
2018-03-23T15:33:20.037Z,2.60
2018-03-23T15:35:47.054Z,3.30
2018-03-23T15:38:14.069Z,3.33
2018-03-23T15:40:41.189Z,1.73
2018-03-23T15:43:08.143Z,1.70
2018-03-23T15:45:35.160Z,1.73
2018-03-23T15:48:02.229Z,2.80
2018-03-23T15:50:29.246Z,1.80
2018-03-23T15:52:56.273Z,6.37
2018-03-23T15:55:23.317Z,1.67
2018-03-23T15:57:50.326Z,2.53
2018-03-23T16:00:17.334Z,2.33
2018-03-23T16:02:44.373Z,3.37
2018-03-23T16:05:11.394Z,3.33
2018-03-23T16:07:38.410Z,15.40
2018-03-23T16:10:05.448Z,9.37
2018-03-23T16:12:32.481Z,3.43
2018-03-23T16:14:59.488Z,2.20
2018-03-23T16:17:26.620Z,3.07
2018-03-23T16:19:54.462Z,3.23
2018-03-23T16:22:21.477Z,5.23
2018-03-23T16:24:48.521Z,10.60
2018-03-23T16:27:16.485Z,6.87
2018-03-23T16:29:43.495Z,3.50
2018-03-23T16:32:10.570Z,4.17
2018-03-23T16:34:37.755Z,20.37
2018-03-23T16:37:05.025Z,5.60
2018-03-23T16:39:32.052Z,2.10
2018-03-23T16:44:38.012Z,2.53
2018-03-23T16:47:05.088Z,3.13
2018-03-23T16:49:32.119Z,2.00
2018-03-23T16:51:59.184Z,2.50
2018-03-23T16:54:26.182Z,4.40
2018-03-23T16:56:53.208Z,4.20
2018-03-23T16:59:20.255Z,4.60
2018-03-23T17:01:47.319Z,4.80
2018-03-23T17:04:14.310Z,9.53
2018-03-23T17:06:41.357Z,7.33
2018-03-23T17:09:08.381Z,5.30
2018-03-23T17:11:35.419Z,6.47
2018-03-23T17:14:02.519Z,6.60
2018-03-23T17:16:30.458Z,5.90
2018-03-23T17:18:57.479Z,7.17
2018-03-23T17:21:24.707Z,7.03
2018-03-23T17:23:51.726Z,6.03
2018-03-23T17:26:18.737Z,7.43
2018-03-23T17:28:45.787Z,6.13
2018-03-23T17:31:12.814Z,11.97
2018-03-23T17:33:39.817Z,5.83
2018-03-23T17:36:08.117Z,8.97
2018-03-23T17:38:36.984Z,6.23
2018-03-23T17:41:04.009Z,8.00
2018-03-23T17:43:31.053Z,8.67
2018-03-23T17:45:59.012Z,43.57
2018-03-23T17:48:26.023Z,67.40
2018-03-23T17:50:53.072Z,103.83
2018-03-23T17:55:58.629Z,41.80
2018-03-23T17:58:25.640Z,36.07
2018-03-23T18:00:52.752Z,58.47
2018-03-23T18:03:19.815Z,21.20
2018-03-23T18:05:46.922Z,51.07
2018-03-23T18:08:13.955Z,25.63
2018-03-23T18:10:41.025Z,21.23
2018-03-23T18:13:08.036Z,14.47
2018-03-23T18:15:35.051Z,14.53
2018-03-23T18:18:03.993Z,12.80
2018-03-23T18:20:31.010Z,12.60
2018-03-23T18:22:58.020Z,11.40
2018-03-23T18:25:25.096Z,13.73
2018-03-23T18:27:52.104Z,11.60
2018-03-23T18:30:19.116Z,10.53
2018-03-23T18:32:46.156Z,12.40
2018-03-23T18:35:14.148Z,14.03
2018-03-23T18:37:41.176Z,11.90
2018-03-23T18:40:08.234Z,11.10
2018-03-23T18:42:35.257Z,10.47
2018-03-23T18:45:02.268Z,10.80
2018-03-23T18:47:29.419Z,12.97
2018-03-23T18:49:57.226Z,12.03
2018-03-23T18:52:24.244Z,11.83
2018-03-23T18:54:51.314Z,11.90
2018-03-23T18:57:18.337Z,12.17
2018-03-23T18:59:45.352Z,13.00
2018-03-23T19:02:13.252Z,10.80
2018-03-23T19:04:40.617Z,12.17
2018-03-23T19:07:07.622Z,12.10
2018-03-23T19:09:35.491Z,9.83
2018-03-23T19:12:02.504Z,11.17
2018-03-23T19:14:29.524Z,12.40
2018-03-23T19:16:56.571Z,10.10
2018-03-23T19:22:02.129Z,11.68
2018-03-23T19:24:29.147Z,9.07
2018-03-23T19:26:56.156Z,11.73
2018-03-23T19:29:23.483Z,9.03
2018-03-23T19:31:50.489Z,8.17
2018-03-23T19:34:17.530Z,11.60
2018-03-23T19:36:44.654Z,10.57
2018-03-23T19:39:11.676Z,9.03
2018-03-23T19:41:38.691Z,8.93
2018-03-23T19:44:05.738Z,10.50
2018-03-23T19:46:32.755Z,7.40
2018-03-23T19:48:59.813Z,11.50
2018-03-23T19:51:26.878Z,7.97
2018-03-23T19:53:53.891Z,9.13
2018-03-23T19:56:24.711Z,9.37
2018-03-23T19:58:51.768Z,8.77
2018-03-23T20:01:18.874Z,9.60
2018-03-23T20:03:45.888Z,10.53
2018-03-23T20:06:12.973Z,10.60
2018-03-23T20:08:39.994Z,9.70
2018-03-23T20:13:50.065Z,11.68
2018-03-23T20:16:17.104Z,7.23
2018-03-23T20:18:44.135Z,8.73
2018-03-23T20:21:11.217Z,7.23
2018-03-23T20:23:38.618Z,8.87
2018-03-23T20:26:05.726Z,6.73
2018-03-23T20:28:32.802Z,7.90
2018-03-23T20:31:01.070Z,10.07
2018-03-23T20:33:28.133Z,7.13
2018-03-23T20:35:55.188Z,7.47
2018-03-23T20:38:22.274Z,7.70
2018-03-23T20:40:49.309Z,9.20
2018-03-23T20:43:16.372Z,7.83
2018-03-23T20:45:43.425Z,10.23
2018-03-23T20:48:10.479Z,8.30
2018-03-23T20:50:37.523Z,5.63
2018-03-23T20:53:04.561Z,6.77
2018-03-23T20:55:31.603Z,7.70
2018-03-23T20:57:58.702Z,6.70
2018-03-23T21:00:26.577Z,5.37
2018-03-23T21:02:53.589Z,5.67
2018-03-23T21:05:20.634Z,7.80
2018-03-23T21:07:47.668Z,8.03
2018-03-23T21:10:14.689Z,7.50
2018-03-23T21:12:41.810Z,7.50
2018-03-23T21:15:08.841Z,7.80
2018-03-23T21:17:35.848Z,7.23
2018-03-23T21:22:41.378Z,7.45
2018-03-23T21:25:08.454Z,8.37
2018-03-23T21:27:35.470Z,6.83
2018-03-23T21:30:02.481Z,6.57
2018-03-23T21:32:30.395Z,8.13
2018-03-23T21:34:59.086Z,8.50
2018-03-23T21:37:26.094Z,7.73
2018-03-23T21:39:53.176Z,9.07
2018-03-23T21:42:20.190Z,9.07
2018-03-23T21:44:47.214Z,10.00
2018-03-23T21:47:14.308Z,12.10
2018-03-23T21:52:15.279Z,8.50
2018-03-23T21:54:42.293Z,11.27
2018-03-23T21:57:09.342Z,13.10
2018-03-23T21:59:36.409Z,7.73
2018-03-23T22:02:03.454Z,9.07
2018-03-23T22:04:30.462Z,10.17
2018-03-23T22:06:57.534Z,8.43
2018-03-23T22:09:24.616Z,7.53
2018-03-23T22:11:51.615Z,10.07
2018-03-23T22:14:18.664Z,11.43
2018-03-23T22:16:46.633Z,9.53
2018-03-23T22:19:13.742Z,11.47
2018-03-23T22:21:40.787Z,12.70
2018-03-23T22:24:07.799Z,12.23
2018-03-23T22:26:34.990Z,12.27
2018-03-23T22:29:02.212Z,12.03
2018-03-23T22:31:29.297Z,12.97
2018-03-23T22:33:57.130Z,12.07
2018-03-23T22:36:24.247Z,11.67
2018-03-23T22:38:51.274Z,14.43
2018-03-23T22:41:18.292Z,12.83
2018-03-23T22:43:45.386Z,12.57
2018-03-23T22:48:53.870Z,12.00
2018-03-23T22:51:20.885Z,10.87
2018-03-23T22:53:47.892Z,12.43
2018-03-23T22:56:14.949Z,13.30
2018-03-23T22:58:41.977Z,12.13
2018-03-23T23:01:09.006Z,11.97
2018-03-23T23:03:36.070Z,11.23
2018-03-23T23:06:03.949Z,14.73
2018-03-23T23:08:30.960Z,12.43
2018-03-23T23:10:58.013Z,12.73
2018-03-23T23:13:25.543Z,12.10
2018-03-23T23:15:54.234Z,11.90
2018-03-23T23:18:21.299Z,14.23
2018-03-23T23:20:48.334Z,13.43
2018-03-23T23:23:15.351Z,13.27
2018-03-23T23:25:42.406Z,10.27
2018-03-23T23:28:09.423Z,10.73
2018-03-23T23:30:36.456Z,10.57
2018-03-23T23:33:03.506Z,7.47
2018-03-23T23:35:30.510Z,7.50
2018-03-23T23:37:57.525Z,10.07
2018-03-23T23:48:21.265Z,9.48
2018-03-23T23:53:33.457Z,10.45
2018-03-23T23:56:00.546Z,8.30
2018-03-23T23:58:27.568Z,7.70
